sensor_id;sensor_type;location;lat;lon;timestamp;P1;durP1;ratioP1;P2;durP2;ratioP2
21091;SDS011;10704;42.678;23.288;2022-09-29T00:01:26;11.00;;;4.43;;
21091;SDS011;10704;42.678;23.288;2022-09-29T00:03:51;11.85;;;3.92;;
21091;SDS011;10704;42.678;23.288;2022-09-29T00:06:18;13.65;;;4.45;;
21091;SDS011;10704;42.678;23.288;2022-09-29T00:08:44;9.48;;;3.42;;
21091;SDS011;10704;42.678;23.288;2022-09-29T00:11:11;10.85;;;3.85;;
21091;SDS011;10704;42.678;23.288;2022-09-29T00:13:39;13.35;;;4.63;;
21091;SDS011;10704;42.678;23.288;2022-09-29T00:16:05;10.00;;;3.90;;
21091;SDS011;10704;42.678;23.288;2022-09-29T00:18:32;12.80;;;3.88;;
21091;SDS011;10704;42.678;23.288;2022-09-29T00:20:59;9.60;;;3.83;;
21091;SDS011;10704;42.678;23.288;2022-09-29T00:23:30;12.60;;;4.55;;
21091;SDS011;10704;42.678;23.288;2022-09-29T00:28:30;11.95;;;3.70;;
21091;SDS011;10704;42.678;23.288;2022-09-29T00:30:57;8.50;;;3.83;;
21091;SDS011;10704;42.678;23.288;2022-09-29T00:33:27;12.13;;;4.38;;
21091;SDS011;10704;42.678;23.288;2022-09-29T00:35:55;11.10;;;5.47;;
21091;SDS011;10704;42.678;23.288;2022-09-29T00:38:25;8.57;;;4.30;;
21091;SDS011;10704;42.678;23.288;2022-09-29T00:40:52;8.52;;;4.35;;
21091;SDS011;10704;42.678;23.288;2022-09-29T00:43:20;12.20;;;5.47;;
21091;SDS011;10704;42.678;23.288;2022-09-29T00:45:52;9.55;;;4.47;;
21091;SDS011;10704;42.678;23.288;2022-09-29T00:48:20;9.77;;;4.22;;
21091;SDS011;10704;42.678;23.288;2022-09-29T00:50:55;11.02;;;4.70;;
21091;SDS011;10704;42.678;23.288;2022-09-29T00:53:21;9.55;;;4.40;;
21091;SDS011;10704;42.678;23.288;2022-09-29T00:55:50;8.85;;;3.97;;
21091;SDS011;10704;42.678;23.288;2022-09-29T01:00:59;14.85;;;4.63;;
21091;SDS011;10704;42.678;23.288;2022-09-29T01:03:27;14.10;;;4.13;;
21091;SDS011;10704;42.678;23.288;2022-09-29T01:05:58;11.88;;;4.40;;
21091;SDS011;10704;42.678;23.288;2022-09-29T01:08:41;9.48;;;4.03;;
21091;SDS011;10704;42.678;23.288;2022-09-29T01:11:11;8.32;;;4.32;;
21091;SDS011;10704;42.678;23.288;2022-09-29T01:13:38;11.93;;;5.15;;
21091;SDS011;10704;42.678;23.288;2022-09-29T01:16:06;13.35;;;5.22;;
21091;SDS011;10704;42.678;23.288;2022-09-29T01:18:31;14.95;;;5.05;;
21091;SDS011;10704;42.678;23.288;2022-09-29T01:23:45;8.73;;;5.13;;
21091;SDS011;10704;42.678;23.288;2022-09-29T01:30:20;11.95;;;4.22;;
21091;SDS011;10704;42.678;23.288;2022-09-29T01:43:47;9.00;;;5.15;;
21091;SDS011;10704;42.678;23.288;2022-09-29T01:46:26;11.98;;;5.07;;
21091;SDS011;10704;42.678;23.288;2022-09-29T01:48:56;12.32;;;5.35;;
21091;SDS011;10704;42.678;23.288;2022-09-29T01:54:26;13.85;;;5.35;;
21091;SDS011;10704;42.678;23.288;2022-09-29T01:57:05;9.73;;;5.68;;
21091;SDS011;10704;42.678;23.288;2022-09-29T01:59:49;16.30;;;7.72;;
21091;SDS011;10704;42.678;23.288;2022-09-29T02:07:55;11.90;;;5.03;;
21091;SDS011;10704;42.678;23.288;2022-09-29T02:10:32;13.50;;;5.60;;
21091;SDS011;10704;42.678;23.288;2022-09-29T02:13:02;8.23;;;4.95;;
21091;SDS011;10704;42.678;23.288;2022-09-29T02:15:32;8.70;;;5.10;;
21091;SDS011;10704;42.678;23.288;2022-09-29T02:18:11;11.13;;;5.30;;
21091;SDS011;10704;42.678;23.288;2022-09-29T02:20:42;12.32;;;5.57;;
21091;SDS011;10704;42.678;23.288;2022-09-29T02:23:10;10.40;;;5.50;;
21091;SDS011;10704;42.678;23.288;2022-09-29T02:25:36;9.00;;;4.97;;
21091;SDS011;10704;42.678;23.288;2022-09-29T02:28:05;12.68;;;5.15;;
21091;SDS011;10704;42.678;23.288;2022-09-29T02:30:32;10.20;;;4.97;;
21091;SDS011;10704;42.678;23.288;2022-09-29T02:32:59;10.13;;;4.53;;
21091;SDS011;10704;42.678;23.288;2022-09-29T02:35:28;9.57;;;4.80;;
21091;SDS011;10704;42.678;23.288;2022-09-29T02:38:10;8.95;;;4.60;;
21091;SDS011;10704;42.678;23.288;2022-09-29T02:40:54;7.90;;;4.35;;
21091;SDS011;10704;42.678;23.288;2022-09-29T02:48:46;9.35;;;4.35;;
21091;SDS011;10704;42.678;23.288;2022-09-29T02:51:31;9.05;;;4.47;;
21091;SDS011;10704;42.678;23.288;2022-09-29T03:02:24;7.50;;;4.07;;
21091;SDS011;10704;42.678;23.288;2022-09-29T03:04:51;10.70;;;4.57;;
21091;SDS011;10704;42.678;23.288;2022-09-29T03:07:18;8.73;;;4.22;;
21091;SDS011;10704;42.678;23.288;2022-09-29T03:09:45;10.32;;;4.50;;
21091;SDS011;10704;42.678;23.288;2022-09-29T03:12:11;12.02;;;3.90;;
21091;SDS011;10704;42.678;23.288;2022-09-29T03:14:37;8.40;;;4.00;;
21091;SDS011;10704;42.678;23.288;2022-09-29T03:17:03;6.95;;;3.70;;
21091;SDS011;10704;42.678;23.288;2022-09-29T03:19:29;10.45;;;3.90;;
21091;SDS011;10704;42.678;23.288;2022-09-29T03:21:55;10.27;;;4.13;;
21091;SDS011;10704;42.678;23.288;2022-09-29T03:24:21;8.82;;;4.28;;
21091;SDS011;10704;42.678;23.288;2022-09-29T03:26:47;8.70;;;4.40;;
21091;SDS011;10704;42.678;23.288;2022-09-29T03:29:13;12.38;;;4.45;;
21091;SDS011;10704;42.678;23.288;2022-09-29T03:31:39;12.23;;;4.35;;
21091;SDS011;10704;42.678;23.288;2022-09-29T03:34:05;9.15;;;3.80;;
21091;SDS011;10704;42.678;23.288;2022-09-29T03:36:31;9.48;;;5.13;;
21091;SDS011;10704;42.678;23.288;2022-09-29T03:38:57;10.25;;;4.65;;
21091;SDS011;10704;42.678;23.288;2022-09-29T03:41:23;15.13;;;4.47;;
21091;SDS011;10704;42.678;23.288;2022-09-29T03:43:48;13.70;;;6.10;;
21091;SDS011;10704;42.678;23.288;2022-09-29T03:46:16;11.70;;;5.88;;
21091;SDS011;10704;42.678;23.288;2022-09-29T03:48:43;13.82;;;5.57;;
21091;SDS011;10704;42.678;23.288;2022-09-29T03:51:08;12.32;;;5.82;;
21091;SDS011;10704;42.678;23.288;2022-09-29T03:53:34;11.20;;;5.35;;
21091;SDS011;10704;42.678;23.288;2022-09-29T03:56:01;10.27;;;4.13;;
21091;SDS011;10704;42.678;23.288;2022-09-29T03:58:27;8.00;;;4.05;;
21091;SDS011;10704;42.678;23.288;2022-09-29T04:00:53;9.20;;;3.50;;
21091;SDS011;10704;42.678;23.288;2022-09-29T04:03:19;6.65;;;3.50;;
21091;SDS011;10704;42.678;23.288;2022-09-29T04:05:46;8.98;;;4.20;;
21091;SDS011;10704;42.678;23.288;2022-09-29T04:08:13;8.27;;;3.55;;
21091;SDS011;10704;42.678;23.288;2022-09-29T04:10:39;7.07;;;4.00;;
21091;SDS011;10704;42.678;23.288;2022-09-29T04:13:05;10.18;;;4.00;;
21091;SDS011;10704;42.678;23.288;2022-09-29T04:15:33;10.55;;;3.75;;
21091;SDS011;10704;42.678;23.288;2022-09-29T04:17:59;7.65;;;3.97;;
21091;SDS011;10704;42.678;23.288;2022-09-29T04:20:25;8.93;;;4.35;;
21091;SDS011;10704;42.678;23.288;2022-09-29T04:22:51;10.07;;;3.95;;
21091;SDS011;10704;42.678;23.288;2022-09-29T04:25:18;10.60;;;4.47;;
21091;SDS011;10704;42.678;23.288;2022-09-29T04:27:44;10.63;;;4.78;;
21091;SDS011;10704;42.678;23.288;2022-09-29T04:30:10;14.60;;;4.85;;
21091;SDS011;10704;42.678;23.288;2022-09-29T04:32:36;9.80;;;4.70;;
21091;SDS011;10704;42.678;23.288;2022-09-29T04:35:02;10.55;;;4.68;;
21091;SDS011;10704;42.678;23.288;2022-09-29T04:37:29;10.90;;;4.55;;
21091;SDS011;10704;42.678;23.288;2022-09-29T04:43:42;11.20;;;4.50;;
21091;SDS011;10704;42.678;23.288;2022-09-29T04:50:01;15.35;;;5.95;;
21091;SDS011;10704;42.678;23.288;2022-09-29T04:52:27;13.38;;;5.53;;
21091;SDS011;10704;42.678;23.288;2022-09-29T04:54:53;13.73;;;5.90;;
21091;SDS011;10704;42.678;23.288;2022-09-29T04:57:19;19.08;;;6.15;;
21091;SDS011;10704;42.678;23.288;2022-09-29T04:59:45;10.18;;;5.78;;
21091;SDS011;10704;42.678;23.288;2022-09-29T05:02:11;14.85;;;5.82;;
21091;SDS011;10704;42.678;23.288;2022-09-29T05:04:36;13.93;;;5.80;;
21091;SDS011;10704;42.678;23.288;2022-09-29T05:07:02;16.10;;;4.93;;
21091;SDS011;10704;42.678;23.288;2022-09-29T05:09:28;17.88;;;5.00;;
21091;SDS011;10704;42.678;23.288;2022-09-29T05:11:54;13.93;;;5.35;;
21091;SDS011;10704;42.678;23.288;2022-09-29T05:14:20;10.30;;;5.57;;
21091;SDS011;10704;42.678;23.288;2022-09-29T05:16:46;13.75;;;5.65;;
21091;SDS011;10704;42.678;23.288;2022-09-29T05:19:12;17.05;;;5.60;;
21091;SDS011;10704;42.678;23.288;2022-09-29T05:21:38;20.35;;;6.43;;
21091;SDS011;10704;42.678;23.288;2022-09-29T05:24:04;16.10;;;6.80;;
21091;SDS011;10704;42.678;23.288;2022-09-29T05:26:30;17.15;;;5.68;;
21091;SDS011;10704;42.678;23.288;2022-09-29T05:28:56;11.65;;;5.78;;
21091;SDS011;10704;42.678;23.288;2022-09-29T05:31:22;23.20;;;7.30;;
21091;SDS011;10704;42.678;23.288;2022-09-29T05:33:48;19.83;;;6.78;;
21091;SDS011;10704;42.678;23.288;2022-09-29T05:36:15;22.02;;;6.78;;
21091;SDS011;10704;42.678;23.288;2022-09-29T05:38:40;14.73;;;7.70;;
21091;SDS011;10704;42.678;23.288;2022-09-29T05:41:10;21.92;;;7.40;;
21091;SDS011;10704;42.678;23.288;2022-09-29T05:43:37;18.52;;;7.22;;
21091;SDS011;10704;42.678;23.288;2022-09-29T05:46:06;19.42;;;7.68;;
21091;SDS011;10704;42.678;23.288;2022-09-29T05:48:33;16.40;;;7.20;;
21091;SDS011;10704;42.678;23.288;2022-09-29T05:50:59;23.20;;;10.38;;
21091;SDS011;10704;42.678;23.288;2022-09-29T06:01:07;18.98;;;8.25;;
21091;SDS011;10704;42.678;23.288;2022-09-29T06:03:38;18.52;;;7.35;;
21091;SDS011;10704;42.678;23.288;2022-09-29T06:06:05;17.95;;;6.97;;
21091;SDS011;10704;42.678;23.288;2022-09-29T06:08:36;22.95;;;10.40;;
21091;SDS011;10704;42.678;23.288;2022-09-29T06:11:10;26.45;;;9.98;;
21091;SDS011;10704;42.678;23.288;2022-09-29T06:13:42;16.23;;;7.72;;
21091;SDS011;10704;42.678;23.288;2022-09-29T06:16:10;26.27;;;9.25;;
21091;SDS011;10704;42.678;23.288;2022-09-29T06:18:36;23.15;;;7.70;;
21091;SDS011;10704;42.678;23.288;2022-09-29T06:21:04;17.75;;;7.05;;
21091;SDS011;10704;42.678;23.288;2022-09-29T06:23:34;13.30;;;7.05;;
21091;SDS011;10704;42.678;23.288;2022-09-29T06:26:01;20.77;;;7.03;;
21091;SDS011;10704;42.678;23.288;2022-09-29T06:28:29;17.30;;;7.05;;
21091;SDS011;10704;42.678;23.288;2022-09-29T06:31:00;13.30;;;5.80;;
21091;SDS011;10704;42.678;23.288;2022-09-29T06:33:31;15.38;;;6.00;;
21091;SDS011;10704;42.678;23.288;2022-09-29T06:35:58;12.77;;;5.97;;
21091;SDS011;10704;42.678;23.288;2022-09-29T06:38:55;16.88;;;5.47;;
21091;SDS011;10704;42.678;23.288;2022-09-29T06:41:21;15.98;;;5.57;;
21091;SDS011;10704;42.678;23.288;2022-09-29T06:43:47;12.20;;;4.57;;
21091;SDS011;10704;42.678;23.288;2022-09-29T06:46:14;9.23;;;4.50;;
21091;SDS011;10704;42.678;23.288;2022-09-29T06:48:39;10.75;;;4.18;;
21091;SDS011;10704;42.678;23.288;2022-09-29T06:51:07;11.18;;;4.82;;
21091;SDS011;10704;42.678;23.288;2022-09-29T06:53:33;9.10;;;4.55;;
21091;SDS011;10704;42.678;23.288;2022-09-29T06:56:01;8.13;;;4.43;;
21091;SDS011;10704;42.678;23.288;2022-09-29T06:58:27;10.85;;;4.90;;
21091;SDS011;10704;42.678;23.288;2022-09-29T07:00:54;16.92;;;5.60;;
21091;SDS011;10704;42.678;23.288;2022-09-29T07:03:23;19.50;;;6.03;;
21091;SDS011;10704;42.678;23.288;2022-09-29T07:16:09;9.65;;;5.45;;
21091;SDS011;10704;42.678;23.288;2022-09-29T07:18:37;16.88;;;5.22;;
21091;SDS011;10704;42.678;23.288;2022-09-29T07:21:06;15.25;;;7.40;;
21091;SDS011;10704;42.678;23.288;2022-09-29T07:23:36;14.50;;;5.97;;
21091;SDS011;10704;42.678;23.288;2022-09-29T07:26:04;15.57;;;6.00;;
21091;SDS011;10704;42.678;23.288;2022-09-29T07:36:05;12.25;;;5.00;;
21091;SDS011;10704;42.678;23.288;2022-09-29T07:38:33;14.00;;;5.20;;
21091;SDS011;10704;42.678;23.288;2022-09-29T07:41:03;11.75;;;4.97;;
21091;SDS011;10704;42.678;23.288;2022-09-29T07:43:31;13.75;;;5.00;;
21091;SDS011;10704;42.678;23.288;2022-09-29T07:45:57;10.48;;;5.35;;
21091;SDS011;10704;42.678;23.288;2022-09-29T07:48:26;11.10;;;5.85;;
21091;SDS011;10704;42.678;23.288;2022-09-29T07:54:40;19.45;;;5.45;;
21091;SDS011;10704;42.678;23.288;2022-09-29T08:00:54;10.60;;;5.15;;
21091;SDS011;10704;42.678;23.288;2022-09-29T08:03:22;16.20;;;5.60;;
21091;SDS011;10704;42.678;23.288;2022-09-29T08:09:37;11.18;;;5.03;;
21091;SDS011;10704;42.678;23.288;2022-09-29T08:12:05;12.00;;;4.93;;
21091;SDS011;10704;42.678;23.288;2022-09-29T08:18:18;13.55;;;5.13;;
21091;SDS011;10704;42.678;23.288;2022-09-29T08:20:46;10.80;;;4.53;;
21091;SDS011;10704;42.678;23.288;2022-09-29T08:23:12;10.48;;;4.15;;
21091;SDS011;10704;42.678;23.288;2022-09-29T08:29:26;9.35;;;4.38;;
21091;SDS011;10704;42.678;23.288;2022-09-29T08:34:39;11.15;;;4.75;;
21091;SDS011;10704;42.678;23.288;2022-09-29T08:40:53;10.32;;;4.45;;
21091;SDS011;10704;42.678;23.288;2022-09-29T08:59:48;9.93;;;3.95;;
21091;SDS011;10704;42.678;23.288;2022-09-29T09:05:14;12.85;;;4.05;;
21091;SDS011;10704;42.678;23.288;2022-09-29T09:08:17;16.25;;;4.60;;
21091;SDS011;10704;42.678;23.288;2022-09-29T09:14:43;11.80;;;4.05;;
21091;SDS011;10704;42.678;23.288;2022-09-29T09:21:24;8.05;;;3.50;;
21091;SDS011;10704;42.678;23.288;2022-09-29T09:23:55;11.15;;;3.85;;
21091;SDS011;10704;42.678;23.288;2022-09-29T09:26:32;8.55;;;2.70;;
21091;SDS011;10704;42.678;23.288;2022-09-29T09:32:20;6.85;;;2.63;;
21091;SDS011;10704;42.678;23.288;2022-09-29T09:42:29;11.02;;;3.83;;
21091;SDS011;10704;42.678;23.288;2022-09-29T09:45:00;11.98;;;3.70;;
21091;SDS011;10704;42.678;23.288;2022-09-29T09:47:49;4.90;;;2.85;;
21091;SDS011;10704;42.678;23.288;2022-09-29T09:50:22;11.57;;;4.30;;
21091;SDS011;10704;42.678;23.288;2022-09-29T09:55:25;15.40;;;6.78;;
21091;SDS011;10704;42.678;23.288;2022-09-29T09:57:54;13.10;;;5.72;;
21091;SDS011;10704;42.678;23.288;2022-09-29T10:03:01;10.27;;;3.35;;
21091;SDS011;10704;42.678;23.288;2022-09-29T10:05:31;7.63;;;2.53;;
21091;SDS011;10704;42.678;23.288;2022-09-29T10:08:25;6.55;;;2.05;;
21091;SDS011;10704;42.678;23.288;2022-09-29T10:10:52;4.47;;;1.77;;
21091;SDS011;10704;42.678;23.288;2022-09-29T10:13:19;8.82;;;3.47;;
21091;SDS011;10704;42.678;23.288;2022-09-29T10:15:58;10.15;;;2.75;;
21091;SDS011;10704;42.678;23.288;2022-09-29T10:30:42;6.68;;;2.55;;
21091;SDS011;10704;42.678;23.288;2022-09-29T10:33:13;9.82;;;3.45;;
21091;SDS011;10704;42.678;23.288;2022-09-29T10:38:30;5.85;;;2.40;;
21091;SDS011;10704;42.678;23.288;2022-09-29T10:43:27;5.47;;;2.67;;
21091;SDS011;10704;42.678;23.288;2022-09-29T10:46:01;7.22;;;2.20;;
21091;SDS011;10704;42.678;23.288;2022-09-29T10:48:28;9.27;;;2.13;;
21091;SDS011;10704;42.678;23.288;2022-09-29T10:53:40;5.80;;;2.47;;
21091;SDS011;10704;42.678;23.288;2022-09-29T10:56:18;5.15;;;1.70;;
21091;SDS011;10704;42.678;23.288;2022-09-29T10:58:53;4.95;;;1.80;;
21091;SDS011;10704;42.678;23.288;2022-09-29T11:01:22;3.95;;;1.55;;
21091;SDS011;10704;42.678;23.288;2022-09-29T11:06:16;3.97;;;1.55;;
21091;SDS011;10704;42.678;23.288;2022-09-29T11:11:22;3.63;;;1.73;;
21091;SDS011;10704;42.678;23.288;2022-09-29T11:13:51;3.97;;;1.63;;
21091;SDS011;10704;42.678;23.288;2022-09-29T11:16:25;4.22;;;1.67;;
21091;SDS011;10704;42.678;23.288;2022-09-29T11:19:06;4.78;;;2.65;;
21091;SDS011;10704;42.678;23.288;2022-09-29T11:32:39;3.35;;;1.70;;
21091;SDS011;10704;42.678;23.288;2022-09-29T11:43:42;5.88;;;1.98;;
21091;SDS011;10704;42.678;23.288;2022-09-29T11:46:23;4.43;;;1.52;;
21091;SDS011;10704;42.678;23.288;2022-09-29T11:52:08;5.80;;;1.63;;
21091;SDS011;10704;42.678;23.288;2022-09-29T12:01:15;4.47;;;1.50;;
21091;SDS011;10704;42.678;23.288;2022-09-29T12:04:22;3.72;;;1.42;;
21091;SDS011;10704;42.678;23.288;2022-09-29T12:12:23;5.38;;;2.13;;
21091;SDS011;10704;42.678;23.288;2022-09-29T12:15:11;4.10;;;2.17;;
21091;SDS011;10704;42.678;23.288;2022-09-29T12:17:42;10.73;;;3.63;;
21091;SDS011;10704;42.678;23.288;2022-09-29T12:20:25;4.22;;;1.85;;
21091;SDS011;10704;42.678;23.288;2022-09-29T12:23:00;6.60;;;2.03;;
21091;SDS011;10704;42.678;23.288;2022-09-29T12:25:31;16.63;;;4.97;;
21091;SDS011;10704;42.678;23.288;2022-09-29T12:28:04;7.55;;;2.40;;
21091;SDS011;10704;42.678;23.288;2022-09-29T12:30:47;2.03;;;1.13;;
21091;SDS011;10704;42.678;23.288;2022-09-29T12:33:24;4.80;;;1.70;;
21091;SDS011;10704;42.678;23.288;2022-09-29T12:36:15;3.28;;;1.42;;
21091;SDS011;10704;42.678;23.288;2022-09-29T12:39:14;6.25;;;1.80;;
21091;SDS011;10704;42.678;23.288;2022-09-29T12:44:50;4.75;;;1.55;;
21091;SDS011;10704;42.678;23.288;2022-09-29T12:47:39;3.83;;;1.30;;
21091;SDS011;10704;42.678;23.288;2022-09-29T12:50:13;5.65;;;1.90;;
21091;SDS011;10704;42.678;23.288;2022-09-29T12:53:05;5.50;;;1.88;;
21091;SDS011;10704;42.678;23.288;2022-09-29T12:56:09;3.72;;;1.73;;
21091;SDS011;10704;42.678;23.288;2022-09-29T12:58:56;2.85;;;1.35;;
21091;SDS011;10704;42.678;23.288;2022-09-29T13:01:41;5.45;;;1.98;;
21091;SDS011;10704;42.678;23.288;2022-09-29T13:12:38;4.95;;;1.95;;
21091;SDS011;10704;42.678;23.288;2022-09-29T13:18:04;6.97;;;2.22;;
21091;SDS011;10704;42.678;23.288;2022-09-29T13:29:25;4.55;;;2.75;;
21091;SDS011;10704;42.678;23.288;2022-09-29T13:31:53;7.53;;;2.33;;
21091;SDS011;10704;42.678;23.288;2022-09-29T13:37:17;5.18;;;2.20;;
21091;SDS011;10704;42.678;23.288;2022-09-29T13:39:56;13.38;;;6.53;;
21091;SDS011;10704;42.678;23.288;2022-09-29T13:47:46;16.58;;;9.68;;
21091;SDS011;10704;42.678;23.288;2022-09-29T13:58:31;8.52;;;4.18;;
21091;SDS011;10704;42.678;23.288;2022-09-29T14:01:00;7.90;;;3.08;;
21091;SDS011;10704;42.678;23.288;2022-09-29T14:03:33;6.75;;;2.53;;
21091;SDS011;10704;42.678;23.288;2022-09-29T14:06:12;9.40;;;4.57;;
21091;SDS011;10704;42.678;23.288;2022-09-29T14:11:14;11.25;;;3.80;;
21091;SDS011;10704;42.678;23.288;2022-09-29T14:14:37;8.25;;;3.90;;
21091;SDS011;10704;42.678;23.288;2022-09-29T14:21:58;10.65;;;3.70;;
21091;SDS011;10704;42.678;23.288;2022-09-29T14:30:19;11.18;;;4.80;;
21091;SDS011;10704;42.678;23.288;2022-09-29T14:32:55;13.43;;;7.70;;
21091;SDS011;10704;42.678;23.288;2022-09-29T14:43:33;8.77;;;2.47;;
21091;SDS011;10704;42.678;23.288;2022-09-29T14:46:06;8.60;;;2.95;;
21091;SDS011;10704;42.678;23.288;2022-09-29T15:04:46;9.32;;;5.00;;
21091;SDS011;10704;42.678;23.288;2022-09-29T15:11:00;12.02;;;4.97;;
21091;SDS011;10704;42.678;23.288;2022-09-29T15:13:27;8.32;;;4.63;;
21091;SDS011;10704;42.678;23.288;2022-09-29T15:19:02;8.70;;;4.90;;
21091;SDS011;10704;42.678;23.288;2022-09-29T15:24:44;9.57;;;4.00;;
21091;SDS011;10704;42.678;23.288;2022-09-29T15:27:20;10.65;;;4.72;;
21091;SDS011;10704;42.678;23.288;2022-09-29T15:29:47;9.32;;;4.95;;
21091;SDS011;10704;42.678;23.288;2022-09-29T15:34:50;13.45;;;5.97;;
21091;SDS011;10704;42.678;23.288;2022-09-29T15:37:18;11.70;;;6.50;;
21091;SDS011;10704;42.678;23.288;2022-09-29T15:39:48;11.73;;;6.47;;
21091;SDS011;10704;42.678;23.288;2022-09-29T15:42:18;13.25;;;7.15;;
21091;SDS011;10704;42.678;23.288;2022-09-29T15:44:57;10.98;;;6.88;;
21091;SDS011;10704;42.678;23.288;2022-09-29T15:47:33;9.80;;;4.95;;
21091;SDS011;10704;42.678;23.288;2022-09-29T15:50:16;8.55;;;5.15;;
21091;SDS011;10704;42.678;23.288;2022-09-29T15:52:46;9.93;;;5.18;;
21091;SDS011;10704;42.678;23.288;2022-09-29T15:55:15;14.95;;;6.75;;
21091;SDS011;10704;42.678;23.288;2022-09-29T15:57:44;9.05;;;5.65;;
21091;SDS011;10704;42.678;23.288;2022-09-29T16:05:44;17.15;;;9.63;;
21091;SDS011;10704;42.678;23.288;2022-09-29T16:08:22;12.15;;;6.82;;
21091;SDS011;10704;42.678;23.288;2022-09-29T16:11:03;21.17;;;11.55;;
21091;SDS011;10704;42.678;23.288;2022-09-29T16:13:37;20.80;;;10.23;;
21091;SDS011;10704;42.678;23.288;2022-09-29T16:16:06;15.38;;;7.65;;
21091;SDS011;10704;42.678;23.288;2022-09-29T16:18:40;14.68;;;8.20;;
21091;SDS011;10704;42.678;23.288;2022-09-29T16:21:16;9.32;;;6.30;;
21091;SDS011;10704;42.678;23.288;2022-09-29T16:23:49;11.90;;;5.43;;
21091;SDS011;10704;42.678;23.288;2022-09-29T16:26:39;7.30;;;4.50;;
21091;SDS011;10704;42.678;23.288;2022-09-29T16:31:39;8.55;;;4.07;;
21091;SDS011;10704;42.678;23.288;2022-09-29T16:39:25;10.73;;;4.70;;
21091;SDS011;10704;42.678;23.288;2022-09-29T16:42:05;11.13;;;4.90;;
21091;SDS011;10704;42.678;23.288;2022-09-29T16:44:42;17.35;;;7.22;;
21091;SDS011;10704;42.678;23.288;2022-09-29T16:52:27;13.32;;;6.20;;
21091;SDS011;10704;42.678;23.288;2022-09-29T16:55:10;10.02;;;5.60;;
21091;SDS011;10704;42.678;23.288;2022-09-29T16:57:56;17.15;;;8.50;;
21091;SDS011;10704;42.678;23.288;2022-09-29T17:00:29;8.10;;;4.90;;
21091;SDS011;10704;42.678;23.288;2022-09-29T17:02:55;10.95;;;4.85;;
21091;SDS011;10704;42.678;23.288;2022-09-29T17:05:25;13.38;;;5.70;;
21091;SDS011;10704;42.678;23.288;2022-09-29T17:07:58;13.80;;;6.00;;
21091;SDS011;10704;42.678;23.288;2022-09-29T17:10:25;9.40;;;5.10;;
21091;SDS011;10704;42.678;23.288;2022-09-29T17:12:51;12.00;;;7.07;;
21091;SDS011;10704;42.678;23.288;2022-09-29T17:15:19;13.20;;;6.65;;
21091;SDS011;10704;42.678;23.288;2022-09-29T17:17:47;14.63;;;7.88;;
21091;SDS011;10704;42.678;23.288;2022-09-29T17:20:19;14.20;;;8.15;;
21091;SDS011;10704;42.678;23.288;2022-09-29T17:22:53;15.30;;;8.48;;
21091;SDS011;10704;42.678;23.288;2022-09-29T17:25:20;13.98;;;8.38;;
21091;SDS011;10704;42.678;23.288;2022-09-29T17:27:47;14.82;;;7.78;;
21091;SDS011;10704;42.678;23.288;2022-09-29T17:30:31;15.57;;;7.70;;
21091;SDS011;10704;42.678;23.288;2022-09-29T17:32:57;11.30;;;7.18;;
21091;SDS011;10704;42.678;23.288;2022-09-29T17:35:27;14.70;;;7.65;;
21091;SDS011;10704;42.678;23.288;2022-09-29T17:37:58;16.63;;;8.68;;
21091;SDS011;10704;42.678;23.288;2022-09-29T17:40:29;14.70;;;9.00;;
21091;SDS011;10704;42.678;23.288;2022-09-29T17:42:59;14.98;;;8.27;;
21091;SDS011;10704;42.678;23.288;2022-09-29T17:45:26;16.25;;;7.90;;
21091;SDS011;10704;42.678;23.288;2022-09-29T17:47:54;12.50;;;7.45;;
21091;SDS011;10704;42.678;23.288;2022-09-29T17:52:57;12.88;;;7.72;;
21091;SDS011;10704;42.678;23.288;2022-09-29T17:55:24;13.70;;;7.45;;
21091;SDS011;10704;42.678;23.288;2022-09-29T17:57:51;14.40;;;7.30;;
21091;SDS011;10704;42.678;23.288;2022-09-29T18:00:19;14.10;;;7.70;;
21091;SDS011;10704;42.678;23.288;2022-09-29T18:02:47;17.95;;;10.40;;
21091;SDS011;10704;42.678;23.288;2022-09-29T18:05:21;13.05;;;7.45;;
21091;SDS011;10704;42.678;23.288;2022-09-29T18:07:49;11.80;;;7.32;;
21091;SDS011;10704;42.678;23.288;2022-09-29T18:10:27;13.10;;;7.32;;
21091;SDS011;10704;42.678;23.288;2022-09-29T18:13:05;14.85;;;7.45;;
21091;SDS011;10704;42.678;23.288;2022-09-29T18:15:32;12.07;;;7.82;;
21091;SDS011;10704;42.678;23.288;2022-09-29T18:17:59;18.33;;;9.15;;
21091;SDS011;10704;42.678;23.288;2022-09-29T18:26:59;10.70;;;7.20;;
21091;SDS011;10704;42.678;23.288;2022-09-29T18:29:25;11.48;;;7.47;;
21091;SDS011;10704;42.678;23.288;2022-09-29T18:31:51;9.15;;;5.72;;
21091;SDS011;10704;42.678;23.288;2022-09-29T18:34:18;11.63;;;6.93;;
21091;SDS011;10704;42.678;23.288;2022-09-29T18:36:45;10.88;;;5.78;;
21091;SDS011;10704;42.678;23.288;2022-09-29T18:39:11;9.38;;;5.97;;
21091;SDS011;10704;42.678;23.288;2022-09-29T18:41:37;10.20;;;5.97;;
21091;SDS011;10704;42.678;23.288;2022-09-29T18:44:13;9.73;;;6.05;;
21091;SDS011;10704;42.678;23.288;2022-09-29T18:46:41;10.60;;;6.38;;
21091;SDS011;10704;42.678;23.288;2022-09-29T18:49:11;12.27;;;6.70;;
21091;SDS011;10704;42.678;23.288;2022-09-29T18:51:39;21.73;;;12.60;;
21091;SDS011;10704;42.678;23.288;2022-09-29T18:54:05;12.35;;;8.75;;
21091;SDS011;10704;42.678;23.288;2022-09-29T18:56:31;15.60;;;7.60;;
21091;SDS011;10704;42.678;23.288;2022-09-29T18:58:57;15.40;;;7.85;;
21091;SDS011;10704;42.678;23.288;2022-09-29T19:01:23;11.60;;;7.53;;
21091;SDS011;10704;42.678;23.288;2022-09-29T19:03:51;13.82;;;8.07;;
21091;SDS011;10704;42.678;23.288;2022-09-29T19:06:17;12.13;;;7.70;;
21091;SDS011;10704;42.678;23.288;2022-09-29T19:08:44;13.02;;;7.38;;
21091;SDS011;10704;42.678;23.288;2022-09-29T19:11:23;12.70;;;8.43;;
21091;SDS011;10704;42.678;23.288;2022-09-29T19:13:51;17.38;;;9.15;;
21091;SDS011;10704;42.678;23.288;2022-09-29T19:16:19;14.00;;;8.18;;
21091;SDS011;10704;42.678;23.288;2022-09-29T19:18:45;15.45;;;7.78;;
21091;SDS011;10704;42.678;23.288;2022-09-29T19:21:14;12.95;;;7.63;;
21091;SDS011;10704;42.678;23.288;2022-09-29T19:23:40;14.10;;;7.55;;
21091;SDS011;10704;42.678;23.288;2022-09-29T19:26:08;12.27;;;8.20;;
21091;SDS011;10704;42.678;23.288;2022-09-29T19:28:35;12.73;;;8.00;;
21091;SDS011;10704;42.678;23.288;2022-09-29T19:31:05;15.05;;;8.75;;
21091;SDS011;10704;42.678;23.288;2022-09-29T19:33:34;12.68;;;8.02;;
21091;SDS011;10704;42.678;23.288;2022-09-29T19:36:01;13.93;;;8.65;;
21091;SDS011;10704;42.678;23.288;2022-09-29T19:38:29;13.95;;;8.93;;
21091;SDS011;10704;42.678;23.288;2022-09-29T19:40:55;15.80;;;9.43;;
21091;SDS011;10704;42.678;23.288;2022-09-29T19:43:21;14.68;;;9.13;;
21091;SDS011;10704;42.678;23.288;2022-09-29T19:45:47;18.58;;;10.10;;
21091;SDS011;10704;42.678;23.288;2022-09-29T19:48:15;14.45;;;9.02;;
21091;SDS011;10704;42.678;23.288;2022-09-29T19:50:44;11.63;;;8.15;;
21091;SDS011;10704;42.678;23.288;2022-09-29T19:53:29;13.23;;;8.77;;
21091;SDS011;10704;42.678;23.288;2022-09-29T19:55:55;12.25;;;7.75;;
21091;SDS011;10704;42.678;23.288;2022-09-29T19:58:22;13.98;;;8.07;;
21091;SDS011;10704;42.678;23.288;2022-09-29T20:00:48;14.90;;;7.88;;
21091;SDS011;10704;42.678;23.288;2022-09-29T20:03:14;11.80;;;7.78;;
21091;SDS011;10704;42.678;23.288;2022-09-29T20:05:40;13.68;;;8.65;;
21091;SDS011;10704;42.678;23.288;2022-09-29T20:08:06;15.93;;;9.90;;
21091;SDS011;10704;42.678;23.288;2022-09-29T20:10:32;13.38;;;9.70;;